sensor_id;sensor_type;location;lat;lon;timestamp;pressure;altitude;pressure_sealevel;temperature;humidity
6668;BME280;3370;47.712;9.082;2023-02-13T00:01:30;98860.06;;;-0.05;100.00
6668;BME280;3370;47.712;9.082;2023-02-13T00:03:56;98855.00;;;-0.05;100.00
6668;BME280;3370;47.712;9.082;2023-02-13T00:06:22;98856.22;;;0.09;100.00
6668;BME280;3370;47.712;9.082;2023-02-13T00:08:48;98855.38;;;0.10;100.00
6668;BME280;3370;47.712;9.082;2023-02-13T00:11:14;98855.47;;;0.13;100.00
6668;BME280;3370;47.712;9.082;2023-02-13T00:13:39;98856.19;;;0.08;100.00
6668;BME280;3370;47.712;9.082;2023-02-13T00:16:06;98856.75;;;-0.03;100.00
6668;BME280;3370;47.712;9.082;2023-02-13T00:18:36;98859.81;;;-0.14;100.00
6668;BME280;3370;47.712;9.082;2023-02-13T00:21:10;98854.69;;;-0.17;100.00
6668;BME280;3370;47.712;9.082;2023-02-13T00:23:38;98850.59;;;-0.12;100.00
6668;BME280;3370;47.712;9.082;2023-02-13T00:26:11;98852.94;;;-0.18;100.00
6668;BME280;3370;47.712;9.082;2023-02-13T00:28:39;98862.34;;;-0.14;100.00
6668;BME280;3370;47.712;9.082;2023-02-13T00:31:13;98858.38;;;-0.05;100.00
6668;BME280;3370;47.712;9.082;2023-02-13T00:33:39;98867.44;;;-0.13;100.00
6668;BME280;3370;47.712;9.082;2023-02-13T00:36:18;98863.06;;;-0.18;100.00
6668;BME280;3370;47.712;9.082;2023-02-13T00:38:45;98862.16;;;-0.21;100.00
6668;BME280;3370;47.712;9.082;2023-02-13T00:41:11;98860.50;;;-0.20;100.00
6668;BME280;3370;47.712;9.082;2023-02-13T00:43:38;98863.31;;;-0.09;100.00
6668;BME280;3370;47.712;9.082;2023-02-13T00:46:05;98859.28;;;-0.03;100.00
6668;BME280;3370;47.712;9.082;2023-02-13T00:48:32;98857.69;;;0.01;100.00
6668;BME280;3370;47.712;9.082;2023-02-13T00:50:59;98854.22;;;-0.03;100.00
6668;BME280;3370;47.712;9.082;2023-02-13T00:53:25;98866.34;;;0.11;100.00
6668;BME280;3370;47.712;9.082;2023-02-13T00:55:52;98863.53;;;0.32;99.93
6668;BME280;3370;47.712;9.082;2023-02-13T00:58:18;98860.19;;;0.33;100.00
6668;BME280;3370;47.712;9.082;2023-02-13T01:00:45;98865.13;;;0.28;100.00
6668;BME280;3370;47.712;9.082;2023-02-13T01:03:13;98872.66;;;0.27;100.00
6668;BME280;3370;47.712;9.082;2023-02-13T01:05:39;98868.31;;;0.21;100.00
6668;BME280;3370;47.712;9.082;2023-02-13T01:08:05;98867.34;;;0.16;100.00
6668;BME280;3370;47.712;9.082;2023-02-13T01:10:31;98859.88;;;0.21;100.00
6668;BME280;3370;47.712;9.082;2023-02-13T01:12:57;98871.13;;;0.32;100.00
6668;BME280;3370;47.712;9.082;2023-02-13T01:15:23;98872.91;;;0.36;100.00
6668;BME280;3370;47.712;9.082;2023-02-13T01:17:52;98864.38;;;0.32;100.00
6668;BME280;3370;47.712;9.082;2023-02-13T01:20:18;98878.75;;;0.33;100.00
6668;BME280;3370;47.712;9.082;2023-02-13T01:22:44;98874.53;;;0.34;100.00
6668;BME280;3370;47.712;9.082;2023-02-13T01:25:10;98877.25;;;0.42;100.00
6668;BME280;3370;47.712;9.082;2023-02-13T01:27:36;98870.66;;;0.48;100.00
6668;BME280;3370;47.712;9.082;2023-02-13T01:30:05;98873.28;;;0.51;100.00
6668;BME280;3370;47.712;9.082;2023-02-13T01:32:36;98870.66;;;0.48;100.00
6668;BME280;3370;47.712;9.082;2023-02-13T01:35:03;98878.25;;;0.48;100.00
6668;BME280;3370;47.712;9.082;2023-02-13T01:37:29;98868.00;;;0.42;100.00
6668;BME280;3370;47.712;9.082;2023-02-13T01:39:55;98876.53;;;0.46;100.00
6668;BME280;3370;47.712;9.082;2023-02-13T01:42:27;98882.88;;;0.65;100.00
6668;BME280;3370;47.712;9.082;2023-02-13T01:44:56;98872.91;;;0.71;100.00
6668;BME280;3370;47.712;9.082;2023-02-13T01:47:40;98872.66;;;0.62;100.00
6668;BME280;3370;47.712;9.082;2023-02-13T01:50:24;98876.00;;;0.59;100.00
6668;BME280;3370;47.712;9.082;2023-02-13T01:53:10;98882.78;;;0.62;100.00
6668;BME280;3370;47.712;9.082;2023-02-13T01:55:56;98881.41;;;0.73;100.00
6668;BME280;3370;47.712;9.082;2023-02-13T01:58:31;98885.84;;;0.83;100.00
6668;BME280;3370;47.712;9.082;2023-02-13T02:01:01;98890.00;;;0.81;100.00
6668;BME280;3370;47.712;9.082;2023-02-13T02:06:31;98883.50;;;0.54;100.00
6668;BME280;3370;47.712;9.082;2023-02-13T02:09:04;98902.78;;;0.49;100.00
6668;BME280;3370;47.712;9.082;2023-02-13T02:11:51;98898.69;;;0.54;100.00
6668;BME280;3370;47.712;9.082;2023-02-13T02:14:19;98903.13;;;0.65;100.00
6668;BME280;3370;47.712;9.082;2023-02-13T02:16:45;98898.09;;;0.66;100.00
6668;BME280;3370;47.712;9.082;2023-02-13T02:19:25;98904.03;;;0.67;100.00
6668;BME280;3370;47.712;9.082;2023-02-13T02:23:01;98893.09;;;0.68;100.00
6668;BME280;3370;47.712;9.082;2023-02-13T02:46:17;98898.94;;;1.03;100.00
6668;BME280;3370;47.712;9.082;2023-02-13T02:49:01;98897.81;;;0.90;100.00
6668;BME280;3370;47.712;9.082;2023-02-13T02:52:14;98893.63;;;0.92;100.00
6668;BME280;3370;47.712;9.082;2023-02-13T02:54:52;98908.16;;;1.00;100.00
6668;BME280;3370;47.712;9.082;2023-02-13T02:57:44;98901.56;;;1.06;100.00
6668;BME280;3370;47.712;9.082;2023-02-13T03:00:32;98905.91;;;1.12;100.00
6668;BME280;3370;47.712;9.082;2023-02-13T03:03:21;98897.47;;;1.11;100.00
6668;BME280;3370;47.712;9.082;2023-02-13T03:06:42;98897.38;;;1.08;100.00
6668;BME280;3370;47.712;9.082;2023-02-13T03:09:16;98903.41;;;1.13;100.00
6668;BME280;3370;47.712;9.082;2023-02-13T03:12:02;98900.81;;;1.09;100.00
6668;BME280;3370;47.712;9.082;2023-02-13T03:14:47;98909.31;;;1.12;100.00
6668;BME280;3370;47.712;9.082;2023-02-13T03:17:15;98907.69;;;1.14;100.00
6668;BME280;3370;47.712;9.082;2023-02-13T03:20:20;98914.44;;;1.15;100.00
6668;BME280;3370;47.712;9.082;2023-02-13T03:23:16;98912.78;;;1.18;100.00
6668;BME280;3370;47.712;9.082;2023-02-13T03:29:19;98916.44;;;1.30;100.00
6668;BME280;3370;47.712;9.082;2023-02-13T03:32:34;98920.63;;;1.28;100.00
6668;BME280;3370;47.712;9.082;2023-02-13T03:35:38;98912.16;;;1.26;100.00
6668;BME280;3370;47.712;9.082;2023-02-13T03:41:19;98916.25;;;1.21;100.00
6668;BME280;3370;47.712;9.082;2023-02-13T03:46:25;98923.81;;;1.18;100.00
6668;BME280;3370;47.712;9.082;2023-02-13T03:48:52;98927.22;;;1.20;100.00
6668;BME280;3370;47.712;9.082;2023-02-13T03:54:28;98925.50;;;1.19;100.00
6668;BME280;3370;47.712;9.082;2023-02-13T03:57:18;98925.50;;;1.19;100.00
6668;BME280;3370;47.712;9.082;2023-02-13T04:00:08;98927.16;;;1.17;100.00
6668;BME280;3370;47.712;9.082;2023-02-13T04:02:48;98933.94;;;1.18;100.00
6668;BME280;3370;47.712;9.082;2023-02-13T04:05:26;98933.34;;;1.30;100.00
6668;BME280;3370;47.712;9.082;2023-02-13T04:07:54;98929.75;;;1.20;100.00
6668;BME280;3370;47.712;9.082;2023-02-13T04:10:20;98944.06;;;1.18;100.00
6668;BME280;3370;47.712;9.082;2023-02-13T04:13:14;98941.78;;;1.30;100.00
6668;BME280;3370;47.712;9.082;2023-02-13T04:16:17;98939.34;;;1.33;100.00
6668;BME280;3370;47.712;9.082;2023-02-13T04:18:45;98944.47;;;1.37;100.00
6668;BME280;3370;47.712;9.082;2023-02-13T04:21:11;98945.28;;;1.36;100.00
6668;BME280;3370;47.712;9.082;2023-02-13T04:23:37;98946.19;;;1.38;100.00
6668;BME280;3370;47.712;9.082;2023-02-13T04:26:07;98935.31;;;1.42;100.00
6668;BME280;3370;47.712;9.082;2023-02-13T04:28:34;98941.31;;;1.47;100.00
6668;BME280;3370;47.712;9.082;2023-02-13T04:30:59;98946.19;;;1.38;100.00
6668;BME280;3370;47.712;9.082;2023-02-13T04:33:25;98939.50;;;1.40;100.00
6668;BME280;3370;47.712;9.082;2023-02-13T04:35:51;98942.75;;;1.36;100.00
6668;BME280;3370;47.712;9.082;2023-02-13T04:38:17;98947.03;;;1.37;100.00
6668;BME280;3370;47.712;9.082;2023-02-13T04:40:43;98952.06;;;1.35;100.00
6668;BME280;3370;47.712;9.082;2023-02-13T04:43:08;98949.81;;;1.49;100.00
6668;BME280;3370;47.712;9.082;2023-02-13T04:45:34;98946.25;;;1.41;100.00
6668;BME280;3370;47.712;9.082;2023-02-13T04:48:00;98953.72;;;1.34;100.00
6668;BME280;3370;47.712;9.082;2023-02-13T04:50:26;98951.25;;;1.36;100.00
6668;BME280;3370;47.712;9.082;2023-02-13T04:52:54;98956.41;;;1.41;100.00
6668;BME280;3370;47.712;9.082;2023-02-13T04:55:22;98949.75;;;1.46;100.00
6668;BME280;3370;47.712;9.082;2023-02-13T04:57:51;98950.59;;;1.46;100.00
6668;BME280;3370;47.712;9.082;2023-02-13T05:00:20;98950.63;;;1.48;100.00
6668;BME280;3370;47.712;9.082;2023-02-13T05:02:46;98950.56;;;1.45;100.00
6668;BME280;3370;47.712;9.082;2023-02-13T05:05:12;98945.66;;;1.51;100.00
6668;BME280;3370;47.712;9.082;2023-02-13T05:07:37;98943.94;;;1.51;100.00
6668;BME280;3370;47.712;9.082;2023-02-13T05:10:04;98944.88;;;1.55;100.00
6668;BME280;3370;47.712;9.082;2023-02-13T05:12:30;98943.94;;;1.51;100.00
6668;BME280;3370;47.712;9.082;2023-02-13T05:14:56;98948.28;;;1.57;100.00
6668;BME280;3370;47.712;9.082;2023-02-13T05:17:21;98943.19;;;1.56;100.00
6668;BME280;3370;47.712;9.082;2023-02-13T05:19:47;98943.09;;;1.51;100.00
6668;BME280;3370;47.712;9.082;2023-02-13T05:22:13;98946.53;;;1.53;100.00
6668;BME280;3370;47.712;9.082;2023-02-13T05:24:57;98951.78;;;1.62;100.00
6668;BME280;3370;47.712;9.082;2023-02-13T05:27:23;98951.75;;;1.61;100.00
6668;BME280;3370;47.712;9.082;2023-02-13T05:29:49;98952.56;;;1.58;100.00
6668;BME280;3370;47.712;9.082;2023-02-13T05:32:15;98954.28;;;1.61;100.00
6668;BME280;3370;47.712;9.082;2023-02-13T05:34:41;98954.44;;;1.68;100.00
6668;BME280;3370;47.712;9.082;2023-02-13T05:37:07;98951.13;;;1.71;100.00
6668;BME280;3370;47.712;9.082;2023-02-13T05:39:32;98960.34;;;1.67;100.00
6668;BME280;3370;47.712;9.082;2023-02-13T05:42:00;98956.88;;;1.62;100.00
6668;BME280;3370;47.712;9.082;2023-02-13T05:44:25;98957.81;;;1.67;100.00
6668;BME280;3370;47.712;9.082;2023-02-13T05:46:51;98963.66;;;1.63;100.00
6668;BME280;3370;47.712;9.082;2023-02-13T05:49:17;98965.44;;;1.67;100.00
6668;BME280;3370;47.712;9.082;2023-02-13T05:51:43;98963.69;;;1.66;100.00
6668;BME280;3370;47.712;9.082;2023-02-13T05:54:11;98957.06;;;1.71;100.00
6668;BME280;3370;47.712;9.082;2023-02-13T05:56:36;98961.34;;;1.76;100.00
6668;BME280;3370;47.712;9.082;2023-02-13T05:59:02;98955.47;;;1.77;100.00
6668;BME280;3370;47.712;9.082;2023-02-13T06:01:28;98960.34;;;1.67;100.00
6668;BME280;3370;47.712;9.082;2023-02-13T06:03:54;98961.97;;;1.64;100.00
6668;BME280;3370;47.712;9.082;2023-02-13T06:06:20;98954.38;;;1.64;100.00
6668;BME280;3370;47.712;9.082;2023-02-13T06:08:47;98950.22;;;1.67;100.00
6668;BME280;3370;47.712;9.082;2023-02-13T06:11:13;98950.31;;;1.73;100.00
6668;BME280;3370;47.712;9.082;2023-02-13T06:13:39;98962.16;;;1.73;100.00
6668;BME280;3370;47.712;9.082;2023-02-13T06:16:07;98953.94;;;1.85;100.00
6668;BME280;3370;47.712;9.082;2023-02-13T06:18:33;98962.38;;;1.84;100.00
6668;BME280;3370;47.712;9.082;2023-02-13T06:21:00;98960.53;;;1.77;100.00
6668;BME280;3370;47.712;9.082;2023-02-13T06:23:26;98963.13;;;1.78;100.00
6668;BME280;3370;47.712;9.082;2023-02-13T06:25:52;98962.97;;;1.70;100.00
6668;BME280;3370;47.712;9.082;2023-02-13T06:28:17;98969.66;;;1.68;100.00
6668;BME280;3370;47.712;9.082;2023-02-13T06:30:43;98967.13;;;1.68;100.00
6668;BME280;3370;47.712;9.082;2023-02-13T06:33:09;98967.19;;;1.71;100.00
6668;BME280;3370;47.712;9.082;2023-02-13T06:35:35;98968.13;;;1.75;100.00
6668;BME280;3370;47.712;9.082;2023-02-13T06:38:00;98969.16;;;1.85;100.00
6668;BME280;3370;47.712;9.082;2023-02-13T06:40:26;98969.16;;;1.85;100.00
6668;BME280;3370;47.712;9.082;2023-02-13T06:42:52;98972.59;;;1.87;100.00
6668;BME280;3370;47.712;9.082;2023-02-13T06:45:17;98972.59;;;1.87;100.00
6668;BME280;3370;47.712;9.082;2023-02-13T06:47:46;98969.16;;;1.85;100.00
6668;BME280;3370;47.712;9.082;2023-02-13T06:50:14;98974.19;;;1.82;100.00
6668;BME280;3370;47.712;9.082;2023-02-13T06:52:46;98980.91;;;1.80;100.00
6668;BME280;3370;47.712;9.082;2023-02-13T06:55:13;98983.41;;;1.78;100.00
6668;BME280;3370;47.712;9.082;2023-02-13T06:57:40;98983.44;;;1.80;100.00
6668;BME280;3370;47.712;9.082;2023-02-13T07:00:07;98984.38;;;1.85;100.00
6668;BME280;3370;47.712;9.082;2023-02-13T07:02:33;98986.16;;;1.89;100.00
6668;BME280;3370;47.712;9.082;2023-02-13T07:04:59;98979.41;;;1.89;100.00
6668;BME280;3370;47.712;9.082;2023-02-13T07:07:25;98983.66;;;1.90;100.00
6668;BME280;3370;47.712;9.082;2023-02-13T07:09:51;98979.50;;;1.94;100.00
6668;BME280;3370;47.712;9.082;2023-02-13T07:12:17;98988.97;;;2.03;100.00
6668;BME280;3370;47.712;9.082;2023-02-13T07:14:43;98989.69;;;1.97;100.00
6668;BME280;3370;47.712;9.082;2023-02-13T07:17:08;98988.03;;;1.98;100.00
6668;BME280;3370;47.712;9.082;2023-02-13T07:19:35;98990.59;;;1.99;100.00
6668;BME280;3370;47.712;9.082;2023-02-13T07:22:01;98993.09;;;1.96;100.00
6668;BME280;3370;47.712;9.082;2023-02-13T07:24:27;98998.16;;;1.96;100.00
6668;BME280;3370;47.712;9.082;2023-02-13T07:26:53;99001.44;;;1.92;100.00
6668;BME280;3370;47.712;9.082;2023-02-13T07:29:19;99005.72;;;1.95;100.00
6668;BME280;3370;47.712;9.082;2023-02-13T07:31:44;98999.81;;;1.94;100.00
6668;BME280;3370;47.712;9.082;2023-02-13T07:34:11;99005.81;;;1.99;100.00
6668;BME280;3370;47.712;9.082;2023-02-13T07:36:37;99004.22;;;2.04;100.00
6668;BME280;3370;47.712;9.082;2023-02-13T07:39:03;99005.97;;;2.05;100.00
6668;BME280;3370;47.712;9.082;2023-02-13T07:41:28;99006.78;;;2.04;100.00
6668;BME280;3370;47.712;9.082;2023-02-13T07:43:54;99011.84;;;2.04;100.00
6668;BME280;3370;47.712;9.082;2023-02-13T07:46:20;99002.53;;;2.03;100.00
6668;BME280;3370;47.712;9.082;2023-02-13T07:48:46;99011.00;;;2.04;100.00
6668;BME280;3370;47.712;9.082;2023-02-13T07:51:11;99010.34;;;2.13;100.00
6668;BME280;3370;47.712;9.082;2023-02-13T07:53:37;99004.38;;;2.10;100.00
6668;BME280;3370;47.712;9.082;2023-02-13T07:56:07;99006.84;;;2.07;100.00
6668;BME280;3370;47.712;9.082;2023-02-13T07:58:33;99012.00;;;2.10;100.00
6668;BME280;3370;47.712;9.082;2023-02-13T08:01:22;99007.84;;;2.16;100.00
6668;BME280;3370;47.712;9.082;2023-02-13T08:03:49;99012.22;;;2.23;100.00
6668;BME280;3370;47.712;9.082;2023-02-13T08:06:16;99017.28;;;2.23;100.00
6668;BME280;3370;47.712;9.082;2023-02-13T08:08:42;99020.78;;;2.28;100.00
6668;BME280;3370;47.712;9.082;2023-02-13T08:11:27;99017.34;;;2.26;100.00
6668;BME280;3370;47.712;9.082;2023-02-13T08:14:13;99017.41;;;2.29;100.00
6668;BME280;3370;47.712;9.082;2023-02-13T08:16:39;99018.09;;;2.20;100.00
6668;BME280;3370;47.712;9.082;2023-02-13T08:19:05;99022.31;;;2.20;100.00
6668;BME280;3370;47.712;9.082;2023-02-13T08:21:30;99024.09;;;2.24;100.00
6668;BME280;3370;47.712;9.082;2023-02-13T08:23:57;99017.34;;;2.26;100.00
6668;BME280;3370;47.712;9.082;2023-02-13T08:26:23;99019.06;;;2.27;100.00
6668;BME280;3370;47.712;9.082;2023-02-13T08:28:49;99020.91;;;2.34;100.00
6668;BME280;3370;47.712;9.082;2023-02-13T08:31:14;99027.72;;;2.37;100.00
6668;BME280;3370;47.712;9.082;2023-02-13T08:33:40;99021.78;;;2.36;100.00
6668;BME280;3370;47.712;9.082;2023-02-13T08:36:06;99025.97;;;2.33;100.00
6668;BME280;3370;47.712;9.082;2023-02-13T08:38:33;99026.03;;;2.37;100.00
6668;BME280;3370;47.712;9.082;2023-02-13T08:40:58;99027.84;;;2.44;100.00
6668;BME280;3370;47.712;9.082;2023-02-13T08:43:24;99024.56;;;2.48;100.00
6668;BME280;3370;47.712;9.082;2023-02-13T08:45:50;99022.78;;;2.44;100.00
6668;BME280;3370;47.712;9.082;2023-02-13T08:48:16;99029.66;;;2.50;100.00
6668;BME280;3370;47.712;9.082;2023-02-13T08:50:42;99023.09;;;2.60;100.00
6668;BME280;3370;47.712;9.082;2023-02-13T08:53:07;99028.16;;;2.60;100.00
6668;BME280;3370;47.712;9.082;2023-02-13T08:55:33;99024.06;;;2.68;100.00
6668;BME280;3370;47.712;9.082;2023-02-13T08:58:01;99020.78;;;2.74;100.00
6668;BME280;3370;47.712;9.082;2023-02-13T09:00:27;99022.59;;;2.79;100.00
6668;BME280;3370;47.712;9.082;2023-02-13T09:02:53;99028.44;;;2.75;100.00
6668;BME280;3370;47.712;9.082;2023-02-13T09:05:19;99023.41;;;2.78;100.00
6668;BME280;3370;47.712;9.082;2023-02-13T09:07:45;99022.41;;;2.68;100.00
6668;BME280;3370;47.712;9.082;2023-02-13T09:10:11;99015.50;;;2.61;100.00
6668;BME280;3370;47.712;9.082;2023-02-13T09:12:37;99031.47;;;2.56;100.00
6668;BME280;3370;47.712;9.082;2023-02-13T09:15:04;99024.50;;;2.45;100.00
6668;BME280;3370;47.712;9.082;2023-02-13T09:17:30;99020.59;;;2.63;100.00
6668;BME280;3370;47.712;9.082;2023-02-13T09:19:56;99029.06;;;2.63;100.00
6668;BME280;3370;47.712;9.082;2023-02-13T09:22:22;99026.59;;;2.68;100.00
6668;BME280;3370;47.712;9.082;2023-02-13T09:24:48;99020.75;;;2.71;100.00
6668;BME280;3370;47.712;9.082;2023-02-13T09:27:14;99027.66;;;2.78;100.00
6668;BME280;3370;47.712;9.082;2023-02-13T09:29:39;99026.03;;;2.84;100.00
6668;BME280;3370;47.712;9.082;2023-02-13T09:32:05;99025.28;;;2.88;100.00
6668;BME280;3370;47.712;9.082;2023-02-13T09:34:31;99034.38;;;2.76;100.00
6668;BME280;3370;47.712;9.082;2023-02-13T09:36:57;99030.22;;;2.79;100.00
6668;BME280;3370;47.712;9.082;2023-02-13T09:39:23;99028.50;;;2.78;100.00
6668;BME280;3370;47.712;9.082;2023-02-13T09:41:50;99034.38;;;2.77;100.00
6668;BME280;3370;47.712;9.082;2023-02-13T09:44:40;99030.25;;;2.82;100.00
6668;BME280;3370;47.712;9.082;2023-02-13T09:47:27;99030.94;;;2.74;100.00
6668;BME280;3370;47.712;9.082;2023-02-13T09:50:28;99023.50;;;2.84;100.00
6668;BME280;3370;47.712;9.082;2023-02-13T09:52:57;99025.44;;;2.98;100.00
6668;BME280;3370;47.712;9.082;2023-02-13T09:55:57;99035.69;;;3.04;100.00
6668;BME280;3370;47.712;9.082;2023-02-13T09:58:49;99031.59;;;3.11;98.39
6668;BME280;3370;47.712;9.082;2023-02-13T10:01:34;99037.59;;;3.14;98.67
6668;BME280;3370;47.712;9.082;2023-02-13T10:10:33;99042.16;;;3.37;96.97
6668;BME280;3370;47.712;9.082;2023-02-13T10:16:18;99038.16;;;3.51;96.00
6668;BME280;3370;47.712;9.082;2023-02-13T10:18:56;99031.38;;;3.50;96.94
6668;BME280;3370;47.712;9.082;2023-02-13T10:21:31;99028.66;;;3.39;98.19
6668;BME280;3370;47.712;9.082;2023-02-13T10:24:11;99029.41;;;3.35;97.33
6668;BME280;3370;47.712;9.082;2023-02-13T10:26:40;99032.09;;;3.43;96.55
6668;BME280;3370;47.712;9.082;2023-02-13T10:29:38;99026.28;;;3.50;96.34
6668;BME280;3370;47.712;9.082;2023-02-13T10:32:42;99027.25;;;3.60;96.00
6668;BME280;3370;47.712;9.082;2023-02-13T10:35:29;99029.69;;;3.52;95.03
6668;BME280;3370;47.712;9.082;2023-02-13T10:37:58;99023.06;;;3.63;94.21
6668;BME280;3370;47.712;9.082;2023-02-13T10:40:35;99021.41;;;3.65;94.14
6668;BME280;3370;47.712;9.082;2023-02-13T10:43:14;99024.41;;;3.38;96.02
6668;BME280;3370;47.712;9.082;2023-02-13T10:46:07;99024.50;;;3.46;96.02
6668;BME280;3370;47.712;9.082;2023-02-13T10:55:19;99004.19;;;3.48;95.72
6668;BME280;3370;47.712;9.082;2023-02-13T10:58:07;99003.38;;;3.49;96.07
6668;BME280;3370;47.712;9.082;2023-02-13T11:01:02;99004.34;;;3.58;97.32
6668;BME280;3370;47.712;9.082;2023-02-13T11:03:29;98996.09;;;3.75;96.94
6668;BME280;3370;47.712;9.082;2023-02-13T11:05:57;98996.81;;;3.66;95.37
6668;BME280;3370;47.712;9.082;2023-02-13T11:08:39;98995.97;;;3.65;94.76
6668;BME280;3370;47.712;9.082;2023-02-13T11:11:34;98999.41;;;3.69;95.17
6668;BME280;3370;47.712;9.082;2023-02-13T11:14:21;98990.31;;;3.87;95.09
6668;BME280;3370;47.712;9.082;2023-02-13T11:16:56;98989.59;;;3.98;93.70
6668;BME280;3370;47.712;9.082;2023-02-13T11:19:59;98981.94;;;3.97;93.24
6668;BME280;3370;47.712;9.082;2023-02-13T11:22:39;98989.72;;;4.08;93.18
6668;BME280;3370;47.712;9.082;2023-02-13T11:25:21;98988.13;;;4.16;91.45
6668;BME280;3370;47.712;9.082;2023-02-13T11:27:50;98981.13;;;3.99;90.74
6668;BME280;3370;47.712;9.082;2023-02-13T11:30:32;98986.28;;;4.04;91.54
6668;BME280;3370;47.712;9.082;2023-02-13T11:35:46;98986.22;;;3.99;91.02
6668;BME280;3370;47.712;9.082;2023-02-13T11:41:03;98975.88;;;3.87;90.79
6668;BME280;3370;47.712;9.082;2023-02-13T11:43:57;98979.34;;;3.92;90.48
6668;BME280;3370;47.712;9.082;2023-02-13T11:46:29;98975.19;;;3.97;91.49
6668;BME280;3370;47.712;9.082;2023-02-13T11:51:47;98970.97;;;3.99;90.66
6668;BME280;3370;47.712;9.082;2023-02-13T11:54:39;98973.28;;;3.84;91.23
6668;BME280;3370;47.712;9.082;2023-02-13T11:59:57;98974.84;;;3.71;92.64
6668;BME280;3370;47.712;9.082;2023-02-13T12:02:44;98976.56;;;3.72;93.08
6668;BME280;3370;47.712;9.082;2023-02-13T12:07:46;98977.50;;;3.79;93.50
6668;BME280;3370;47.712;9.082;2023-02-13T12:10:25;98971.66;;;3.89;92.32
6668;BME280;3370;47.712;9.082;2023-02-13T12:13:23;98960.44;;;3.72;91.31
6668;BME280;3370;47.712;9.082;2023-02-13T12:16:05;98968.22;;;3.86;91.66
6668;BME280;3370;47.712;9.082;2023-02-13T12:18:43;98968.31;;;3.93;92.49
6668;BME280;3370;47.712;9.082;2023-02-13T12:21:47;98965.81;;;3.96;91.12
6668;BME280;3370;47.712;9.082;2023-02-13T12:27:41;98957.03;;;3.73;92.71
6668;BME280;3370;47.712;9.082;2023-02-13T12:30:51;98950.47;;;3.89;91.91
6668;BME280;3370;47.712;9.082;2023-02-13T12:39:34;98942.97;;;3.99;92.79
6668;BME280;3370;47.712;9.082;2023-02-13T12:42:36;98950.38;;;3.81;91.20
6668;BME280;3370;47.712;9.082;2023-02-13T12:54:27;98941.66;;;3.63;92.77
6668;BME280;3370;47.712;9.082;2023-02-13T13:03:17;98931.25;;;4.15;90.25
6668;BME280;3370;47.712;9.082;2023-02-13T13:08:50;98924.50;;;4.17;88.75
6668;BME280;3370;47.712;9.082;2023-02-13T13:11:53;98922.84;;;4.21;87.91
6668;BME280;3370;47.712;9.082;2023-02-13T13:17:35;98920.16;;;4.10;88.66
6668;BME280;3370;47.712;9.082;2023-02-13T13:23:31;98913.72;;;5.69;82.77
6668;BME280;3370;47.712;9.082;2023-02-13T13:26:34;98912.25;;;6.36;78.42
6668;BME280;3370;47.712;9.082;2023-02-13T13:29:09;98909.72;;;6.88;77.13
6668;BME280;3370;47.712;9.082;2023-02-13T13:31:37;98906.31;;;6.87;74.16
6668;BME280;3370;47.712;9.082;2023-02-13T13:34:10;98916.53;;;7.17;73.68
6668;BME280;3370;47.712;9.082;2023-02-13T13:36:57;98906.16;;;7.64;72.63
6668;BME280;3370;47.712;9.082;2023-02-13T13:39:51;98903.41;;;8.09;70.32
6668;BME280;3370;47.712;9.082;2023-02-13T13:43:25;98907.59;;;8.29;68.12
6668;BME280;3370;47.712;9.082;2023-02-13T13:46:20;98904.97;;;8.35;67.63
6668;BME280;3370;47.712;9.082;2023-02-13T13:51:50;98906.88;;;8.02;66.68
6668;BME280;3370;47.712;9.082;2023-02-13T13:54:18;98904.31;;;7.97;67.40
6668;BME280;3370;47.712;9.082;2023-02-13T14:00:18;98895.72;;;8.06;67.21
6668;BME280;3370;47.712;9.082;2023-02-13T14:02:47;98902.38;;;8.38;65.07
6668;BME280;3370;47.712;9.082;2023-02-13T14:05:31;98898.06;;;8.51;65.73
6668;BME280;3370;47.712;9.082;2023-02-13T14:08:03;98906.75;;;8.22;65.70
6668;BME280;3370;47.712;9.082;2023-02-13T14:13:33;98903.47;;;8.00;66.82
6668;BME280;3370;47.712;9.082;2023-02-13T14:15:59;98902.41;;;8.35;66.97
6668;BME280;3370;47.712;9.082;2023-02-13T14:18:26;98905.88;;;8.28;66.36
6668;BME280;3370;47.712;9.082;2023-02-13T14:21:03;98900.31;;;8.91;65.22
6668;BME280;3370;47.712;9.082;2023-02-13T14:29:20;98897.81;;;8.83;64.86
6668;BME280;3370;47.712;9.082;2023-02-13T14:34:27;98902.03;;;8.89;63.50
6668;BME280;3370;47.712;9.082;2023-02-13T14:39:41;98897.66;;;9.00;63.86
6668;BME280;3370;47.712;9.082;2023-02-13T14:42:27;98901.84;;;9.09;63.68
6668;BME280;3370;47.712;9.082;2023-02-13T14:44:59;98901.06;;;9.00;63.25
6668;BME280;3370;47.712;9.082;2023-02-13T14:47:36;98897.75;;;8.88;63.41
6668;BME280;3370;47.712;9.082;2023-02-13T14:50:06;98908.91;;;8.85;63.99
6668;BME280;3370;47.712;9.082;2023-02-13T14:52:39;98903.59;;;9.05;62.73
6668;BME280;3370;47.712;9.082;2023-02-13T14:55:32;98901.22;;;8.83;63.66
6668;BME280;3370;47.712;9.082;2023-02-13T14:58:07;98902.03;;;8.90;63.08
6668;BME280;3370;47.712;9.082;2023-02-13T15:03:53;98893.94;;;8.22;64.91
6668;BME280;3370;47.712;9.082;2023-02-13T15:06:29;98891.59;;;7.85;66.66
6668;BME280;3370;47.712;9.082;2023-02-13T15:09:02;98893.38;;;7.61;67.02
6668;BME280;3370;47.712;9.082;2023-02-13T15:11:42;98891.75;;;7.37;68.86
6668;BME280;3370;47.712;9.082;2023-02-13T15:14:34;98891.78;;;7.33;68.55
6668;BME280;3370;47.712;9.082;2023-02-13T15:17:23;98893.44;;;7.47;68.36
6668;BME280;3370;47.712;9.082;2023-02-13T15:19:53;98892.50;;;7.64;68.26
6668;BME280;3370;47.712;9.082;2023-02-13T15:22:35;98887.34;;;7.78;67.47
6668;BME280;3370;47.712;9.082;2023-02-13T15:25:03;98881.34;;;7.82;67.38
6668;BME280;3370;47.712;9.082;2023-02-13T15:27:41;98879.69;;;7.72;67.64
6668;BME280;3370;47.712;9.082;2023-02-13T15:33:19;98879.63;;;7.85;67.67
6668;BME280;3370;47.712;9.082;2023-02-13T15:35:46;98873.66;;;7.77;67.78
6668;BME280;3370;47.712;9.082;2023-02-13T15:38:19;98866.81;;;7.79;67.14
6668;BME280;3370;47.712;9.082;2023-02-13T15:40:45;98871.16;;;7.66;67.77
6668;BME280;3370;47.712;9.082;2023-02-13T15:43:35;98872.06;;;7.55;68.20
6668;BME280;3370;47.712;9.082;2023-02-13T15:46:07;98873.91;;;7.05;70.00
6668;BME280;3370;47.712;9.082;2023-02-13T15:48:43;98878.19;;;6.89;70.18
6668;BME280;3370;47.712;9.082;2023-02-13T15:51:22;98872.25;;;6.85;71.58
6668;BME280;3370;47.712;9.082;2023-02-13T15:53:57;98873.06;;;6.81;70.86
6668;BME280;3370;47.712;9.082;2023-02-13T15:56:23;98872.22;;;6.70;72.72
6668;BME280;3370;47.712;9.082;2023-02-13T15:58:50;98879.91;;;6.62;73.45
6668;BME280;3370;47.712;9.082;2023-02-13T16:01:17;98873.09;;;6.69;73.13
6668;BME280;3370;47.712;9.082;2023-02-13T16:03:57;98879.88;;;6.58;73.15
6668;BME280;3370;47.712;9.082;2023-02-13T16:06:25;98873.94;;;6.46;73.87